createdAt,value
2022-12-05T00:00:55.737Z,102176.28
2022-12-05T00:03:22.765Z,102157.53
2022-12-05T00:05:49.537Z,102169.88
2022-12-05T00:08:16.646Z,102167.00
2022-12-05T00:10:43.592Z,102174.97
2022-12-05T00:13:11.000Z,102168.50
2022-12-05T00:15:39.566Z,102168.41
2022-12-05T00:18:07.132Z,102176.00
2022-12-05T00:20:34.071Z,102174.44
2022-12-05T00:23:01.194Z,102177.47
2022-12-05T00:25:28.648Z,102180.22
2022-12-05T00:27:55.359Z,102181.00
2022-12-05T00:30:22.117Z,102169.59
2022-12-05T00:32:48.873Z,102166.16
2022-12-05T00:35:15.709Z,102176.91
2022-12-05T00:37:42.402Z,102173.47
2022-12-05T00:40:09.596Z,102174.97
2022-12-05T00:42:36.434Z,102177.47
2022-12-05T00:45:03.611Z,102171.22
2022-12-05T00:47:30.307Z,102169.38
2022-12-05T00:49:57.172Z,102175.59
2022-12-05T00:52:24.010Z,102187.88
2022-12-05T00:54:50.750Z,102188.66
2022-12-05T00:57:17.424Z,102180.69
2022-12-05T00:59:44.443Z,102192.47
2022-12-05T01:02:11.187Z,102188.00
2022-12-05T01:04:38.002Z,102195.25
2022-12-05T01:07:04.949Z,102199.88
2022-12-05T01:09:31.700Z,102200.09
2022-12-05T01:11:58.457Z,102184.38
2022-12-05T01:14:26.726Z,102191.56
2022-12-05T01:16:55.819Z,102195.31
2022-12-05T01:19:28.184Z,102186.56
2022-12-05T01:21:55.663Z,102188.75
2022-12-05T01:24:26.657Z,102185.16
2022-12-05T01:26:53.652Z,102195.47
2022-12-05T01:29:22.061Z,102202.59
2022-12-05T01:31:49.097Z,102198.78
2022-12-05T01:34:17.769Z,102205.75
2022-12-05T01:36:45.656Z,102205.44
2022-12-05T01:39:13.586Z,102222.06
2022-12-05T01:41:44.532Z,102214.34
2022-12-05T01:44:11.179Z,102216.84
2022-12-05T01:46:43.623Z,102210.81
2022-12-05T01:49:16.276Z,102209.81
2022-12-05T01:51:50.183Z,102219.31
2022-12-05T01:54:18.606Z,102212.66
2022-12-05T01:56:53.594Z,102205.59
2022-12-05T01:59:22.506Z,102196.88
2022-12-05T02:01:49.637Z,102200.28
2022-12-05T02:04:16.722Z,102198.59
2022-12-05T02:06:43.784Z,102195.22
2022-12-05T02:09:10.593Z,102203.72
2022-12-05T02:11:51.743Z,102200.00
2022-12-05T02:14:38.674Z,102201.88
2022-12-05T02:17:31.485Z,102199.03
2022-12-05T02:20:13.366Z,102200.50
2022-12-05T02:22:50.946Z,102201.75
2022-12-05T02:26:00.315Z,102212.28
2022-12-05T02:28:48.783Z,102202.03
2022-12-05T02:31:23.830Z,102195.16
2022-12-05T02:34:00.259Z,102203.09
2022-12-05T02:36:46.211Z,102194.34
2022-12-05T02:39:21.738Z,102194.41
2022-12-05T02:41:58.934Z,102194.00
2022-12-05T02:44:36.532Z,102189.53
2022-12-05T02:47:06.569Z,102187.44
2022-12-05T02:49:36.873Z,102191.84
2022-12-05T02:52:08.929Z,102188.97
2022-12-05T02:54:39.487Z,102200.66
2022-12-05T02:57:08.662Z,102188.00
2022-12-05T02:59:36.129Z,102193.25
2022-12-05T03:02:03.073Z,102191.31
2022-12-05T03:04:31.424Z,102193.81
2022-12-05T03:07:05.031Z,102188.44
2022-12-05T03:09:47.645Z,102191.88
2022-12-05T03:12:26.104Z,102185.63
2022-12-05T03:15:06.340Z,102195.09
2022-12-05T03:17:41.218Z,102212.16
2022-12-05T03:20:08.320Z,102203.47
2022-12-05T03:22:47.657Z,102208.47
2022-12-05T03:25:15.111Z,102207.91
2022-12-05T03:27:41.876Z,102210.50
2022-12-05T03:30:12.550Z,102206.31
2022-12-05T03:32:42.245Z,102211.34
2022-12-05T03:35:20.774Z,102213.16
2022-12-05T03:37:50.638Z,102212.06
2022-12-05T03:40:37.372Z,102213.22
2022-12-05T03:43:25.726Z,102210.63
2022-12-05T03:46:05.215Z,102214.44
2022-12-05T03:48:37.734Z,102215.38
2022-12-05T03:51:08.680Z,102217.09
2022-12-05T03:53:42.187Z,102215.28
2022-12-05T03:56:13.902Z,102215.81
2022-12-05T03:59:06.379Z,102224.63
2022-12-05T04:01:36.018Z,102225.41
2022-12-05T04:04:11.067Z,102223.78
2022-12-05T04:06:40.854Z,102236.81
2022-12-05T04:09:17.065Z,102236.09
2022-12-05T04:11:50.696Z,102236.75
2022-12-05T04:14:28.333Z,102230.44
2022-12-05T04:17:03.985Z,102237.44
2022-12-05T04:19:55.408Z,102238.56
2022-12-05T04:22:22.688Z,102242.19
2022-12-05T04:25:10.251Z,102235.91
2022-12-05T04:27:54.161Z,102245.06
2022-12-05T04:30:24.674Z,102246.50
2022-12-05T04:33:05.214Z,102237.03
2022-12-05T04:35:48.313Z,102238.56
2022-12-05T04:38:24.336Z,102246.34
2022-12-05T04:40:58.846Z,102246.50
2022-12-05T04:43:28.107Z,102242.84
2022-12-05T04:45:58.634Z,102248.84
2022-12-05T04:48:27.922Z,102249.06
2022-12-05T04:50:57.006Z,102248.16
2022-12-05T04:53:29.514Z,102253.38
2022-12-05T04:56:00.391Z,102249.56
2022-12-05T04:58:28.425Z,102257.53
2022-12-05T05:01:03.876Z,102250.25
2022-12-05T05:03:32.737Z,102253.97
2022-12-05T05:05:59.582Z,102260.56
2022-12-05T05:08:29.392Z,102255.38
2022-12-05T05:11:10.063Z,102254.88
2022-12-05T05:13:37.007Z,102260.91
2022-12-05T05:16:03.959Z,102259.88
2022-12-05T05:18:30.967Z,102261.69
2022-12-05T05:20:57.828Z,102269.44
2022-12-05T05:23:24.656Z,102252.78
2022-12-05T05:25:56.365Z,102262.41
2022-12-05T05:28:23.487Z,102266.16
2022-12-05T05:30:50.215Z,102270.72
2022-12-05T05:33:17.035Z,102265.56
2022-12-05T05:35:43.694Z,102269.28
2022-12-05T05:38:10.561Z,102272.00
2022-12-05T05:40:37.571Z,102273.00
2022-12-05T05:43:04.381Z,102266.09
2022-12-05T05:45:31.186Z,102274.06
2022-12-05T05:47:58.025Z,102273.38
2022-12-05T05:50:24.770Z,102280.50
2022-12-05T05:52:51.523Z,102269.88
2022-12-05T05:55:18.523Z,102274.84
2022-12-05T05:57:45.309Z,102281.75
2022-12-05T06:00:12.686Z,102284.19
2022-12-05T06:02:39.579Z,102289.28
2022-12-05T06:05:06.972Z,102289.34
2022-12-05T06:07:33.726Z,102289.94
2022-12-05T06:10:01.258Z,102290.28
2022-12-05T06:12:28.195Z,102290.50
2022-12-05T06:14:54.997Z,102288.56
2022-12-05T06:17:21.826Z,102279.09
2022-12-05T06:19:48.567Z,102274.72
2022-12-05T06:22:15.349Z,102274.59
2022-12-05T06:24:42.099Z,102268.50
2022-12-05T06:27:08.979Z,102273.78
2022-12-05T06:29:35.840Z,102269.00
2022-12-05T06:32:02.626Z,102276.16
2022-12-05T06:34:29.491Z,102281.75
2022-12-05T06:36:56.273Z,102271.41
2022-12-05T06:39:23.052Z,102278.00
2022-12-05T06:41:49.798Z,102279.25
2022-12-05T06:44:16.679Z,102277.41
2022-12-05T06:46:43.393Z,102281.75
2022-12-05T06:49:10.674Z,102277.66
2022-12-05T06:51:37.427Z,102281.75
2022-12-05T06:54:04.260Z,102284.34
2022-12-05T06:56:31.324Z,102282.13
2022-12-05T06:58:58.151Z,102286.41
2022-12-05T07:01:44.027Z,102296.75
2022-12-05T07:04:15.742Z,102287.19
2022-12-05T07:06:49.916Z,102297.41
2022-12-05T07:09:19.524Z,102291.66
2022-12-05T07:11:50.674Z,102302.78
2022-12-05T07:14:46.325Z,102305.44
2022-12-05T07:17:05.281Z,102308.31
2022-12-05T07:19:31.994Z,102309.16
2022-12-05T07:21:58.936Z,102303.81
2022-12-05T07:24:25.974Z,102300.41
2022-12-05T07:26:52.728Z,102294.47
2022-12-05T07:29:19.757Z,102298.78
2022-12-05T07:31:46.579Z,102291.66
2022-12-05T07:34:13.450Z,102296.97
2022-12-05T07:36:43.075Z,102294.31
2022-12-05T07:39:14.096Z,102295.38
2022-12-05T07:41:42.734Z,102297.88
2022-12-05T07:44:18.892Z,102298.56
2022-12-05T07:46:52.515Z,102298.69
2022-12-05T07:49:22.198Z,102299.84
2022-12-05T07:51:49.046Z,102308.50
2022-12-05T07:54:16.686Z,102301.81
2022-12-05T07:56:48.126Z,102308.72
2022-12-05T07:59:15.165Z,102308.97
2022-12-05T08:01:42.002Z,102323.91
2022-12-05T08:04:14.828Z,102310.72
2022-12-05T08:06:42.282Z,102320.47
2022-12-05T08:09:09.063Z,102327.88
2022-12-05T08:11:36.277Z,102326.03
2022-12-05T08:14:05.362Z,102322.97
2022-12-05T08:16:33.002Z,102319.97
2022-12-05T08:19:05.232Z,102317.41
2022-12-05T08:21:33.920Z,102329.75
2022-12-05T08:24:00.721Z,102329.09
2022-12-05T08:26:30.170Z,102326.75
2022-12-05T08:29:00.271Z,102331.84
2022-12-05T08:31:29.575Z,102332.75
2022-12-05T08:33:59.341Z,102336.78
2022-12-05T08:36:28.321Z,102345.91
2022-12-05T08:39:00.706Z,102338.66
2022-12-05T08:41:31.365Z,102346.66
2022-12-05T08:44:05.611Z,102342.91
2022-12-05T08:46:34.666Z,102343.59
2022-12-05T08:49:01.854Z,102341.84
2022-12-05T08:51:28.688Z,102344.59
2022-12-05T08:53:56.481Z,102345.75
2022-12-05T08:56:27.236Z,102345.91
2022-12-05T08:59:01.123Z,102349.63
2022-12-05T09:01:31.864Z,102349.22
2022-12-05T09:04:04.537Z,102344.72
2022-12-05T09:06:32.971Z,102352.66
2022-12-05T09:11:48.983Z,102358.75
2022-12-05T09:14:16.068Z,102354.47
2022-12-05T09:16:46.063Z,102360.22
2022-12-05T09:19:16.627Z,102349.56
2022-12-05T09:21:44.533Z,102358.19
2022-12-05T09:24:12.788Z,102359.34
2022-12-05T09:26:40.464Z,102361.84
2022-12-05T09:29:10.126Z,102354.47
2022-12-05T09:31:45.255Z,102364.28
2022-12-05T09:34:14.212Z,102365.81
2022-12-05T09:36:41.882Z,102369.25
2022-12-05T09:39:08.612Z,102370.63
2022-12-05T09:42:04.700Z,102365.00
2022-12-05T09:44:49.651Z,102364.44
2022-12-05T09:47:28.479Z,102367.59
2022-12-05T09:50:16.489Z,102368.44
2022-12-05T09:52:53.492Z,102375.81
2022-12-05T09:55:21.254Z,102377.03
2022-12-05T09:58:21.402Z,102373.25
2022-12-05T10:00:51.945Z,102372.94
2022-12-05T10:03:34.553Z,102373.03
2022-12-05T10:06:39.461Z,102370.28
2022-12-05T10:09:18.102Z,102371.97
2022-12-05T10:11:54.967Z,102380.25
2022-12-05T10:14:29.591Z,102378.41
2022-12-05T10:17:03.128Z,102374.16
2022-12-05T10:19:38.335Z,102372.72
2022-12-05T10:22:18.856Z,102369.41
2022-12-05T10:24:51.959Z,102368.75
2022-12-05T10:27:20.338Z,102362.22
2022-12-05T10:30:12.619Z,102362.53
2022-12-05T10:33:14.756Z,102366.59
2022-12-05T10:35:42.094Z,102365.81
2022-12-05T10:38:25.834Z,102362.50
2022-12-05T10:40:58.337Z,102361.53
2022-12-05T10:43:32.577Z,102367.38
2022-12-05T10:46:01.143Z,102361.28
2022-12-05T10:48:29.426Z,102357.25
2022-12-05T10:50:58.652Z,102358.50
2022-12-05T10:53:28.889Z,102363.81
2022-12-05T10:56:28.612Z,102361.13
2022-12-05T10:58:56.671Z,102359.91
2022-12-05T11:01:31.534Z,102357.66
2022-12-05T11:04:01.405Z,102355.50
2022-12-05T11:06:31.336Z,102353.94
2022-12-05T11:09:05.370Z,102354.38
2022-12-05T11:11:34.228Z,102349.94
2022-12-05T11:14:23.323Z,102352.88
2022-12-05T11:16:59.965Z,102356.91
2022-12-05T11:19:33.630Z,102350.22
2022-12-05T11:22:01.423Z,102352.19
2022-12-05T11:24:35.670Z,102355.69
2022-12-05T11:27:30.385Z,102352.66
2022-12-05T11:29:59.287Z,102344.34
2022-12-05T11:32:32.513Z,102353.34
2022-12-05T11:35:05.689Z,102343.78
2022-12-05T11:37:56.283Z,102350.03
2022-12-05T11:40:38.172Z,102351.53
2022-12-05T11:43:43.040Z,102344.06
2022-12-05T11:46:52.959Z,102349.59
2022-12-05T11:49:44.223Z,102346.22
2022-12-05T11:52:29.507Z,102338.25
2022-12-05T11:55:17.631Z,102338.75
2022-12-05T11:57:57.548Z,102338.75
2022-12-05T12:00:30.290Z,102339.88
2022-12-05T12:03:09.285Z,102331.44
2022-12-05T12:05:50.196Z,102328.47
2022-12-05T12:08:26.018Z,102331.38
2022-12-05T12:11:11.048Z,102330.56
2022-12-05T12:14:16.841Z,102323.97
2022-12-05T12:17:20.557Z,102329.94
2022-12-05T12:19:47.258Z,102327.22
2022-12-05T12:22:55.513Z,102321.59
2022-12-05T12:25:43.544Z,102319.16
2022-12-05T12:28:19.656Z,102316.44
2022-12-05T12:31:12.375Z,102316.22
2022-12-05T12:34:00.538Z,102309.63
2022-12-05T12:36:59.626Z,102310.19
2022-12-05T12:39:53.530Z,102302.16
2022-12-05T12:43:45.208Z,102302.22
2022-12-05T12:46:29.181Z,102293.19
2022-12-05T12:49:08.002Z,102297.53
2022-12-05T12:51:35.123Z,102297.59
2022-12-05T12:55:06.473Z,102297.59
2022-12-05T12:57:48.159Z,102297.00
2022-12-05T13:00:47.120Z,102298.31
2022-12-05T13:03:22.879Z,102306.03
2022-12-05T13:06:08.433Z,102307.72
2022-12-05T13:08:50.944Z,102298.19
2022-12-05T13:11:20.531Z,102304.22
2022-12-05T13:13:53.822Z,102308.03
2022-12-05T13:16:32.459Z,102307.03
2022-12-05T13:19:00.059Z,102304.22
2022-12-05T13:21:28.255Z,102308.16
2022-12-05T13:24:03.283Z,102304.06
2022-12-05T13:26:36.502Z,102308.13
2022-12-05T13:29:04.713Z,102305.84
2022-12-05T13:31:41.186Z,102301.13
2022-12-05T13:34:48.209Z,102298.31
2022-12-05T13:37:48.526Z,102292.66
2022-12-05T13:40:44.855Z,102294.31
2022-12-05T13:43:15.029Z,102291.66
2022-12-05T13:45:54.555Z,102293.78
2022-12-05T13:48:26.196Z,102286.59
2022-12-05T13:51:08.090Z,102290.22
2022-12-05T13:53:39.984Z,102287.44
2022-12-05T13:56:37.851Z,102287.13
2022-12-05T13:59:04.688Z,102285.38
2022-12-05T14:01:52.057Z,102280.13
2022-12-05T14:04:42.562Z,102279.44
2022-12-05T14:07:10.807Z,102276.91
2022-12-05T14:09:55.232Z,102281.06
2022-12-05T14:12:22.045Z,102273.03
2022-12-05T14:14:58.096Z,102262.53
2022-12-05T14:17:27.650Z,102266.34
2022-12-05T14:20:15.764Z,102276.34
2022-12-05T14:22:45.249Z,102262.50
2022-12-05T14:25:43.537Z,102268.69
2022-12-05T14:28:41.686Z,102260.13
2022-12-05T14:31:24.772Z,102264.63
2022-12-05T14:34:18.466Z,102266.53
2022-12-05T14:37:14.545Z,102259.81
2022-12-05T14:39:46.119Z,102262.41
2022-12-05T14:42:50.556Z,102255.13
2022-12-05T14:45:28.425Z,102256.53
2022-12-05T14:47:58.087Z,102250.88
2022-12-05T14:50:46.076Z,102241.78
2022-12-05T14:53:22.028Z,102238.03
2022-12-05T14:56:06.698Z,102244.06
2022-12-05T14:58:42.123Z,102236.03
2022-12-05T15:01:20.048Z,102228.22
2022-12-05T15:04:18.140Z,102229.13
2022-12-05T15:06:47.645Z,102227.44
2022-12-05T15:09:52.059Z,102229.41
2022-12-05T15:12:33.901Z,102228.28
2022-12-05T15:15:13.884Z,102223.81
2022-12-05T15:17:46.696Z,102224.72
2022-12-05T15:20:22.396Z,102224.97
2022-12-05T15:22:49.404Z,102222.25
2022-12-05T15:25:21.904Z,102221.53
2022-12-05T15:27:57.293Z,102222.41
2022-12-05T15:30:30.932Z,102224.31
2022-12-05T15:32:59.765Z,102224.25
2022-12-05T15:35:31.323Z,102230.28
2022-12-05T15:38:05.845Z,102225.25
2022-12-05T15:40:37.646Z,102230.34
2022-12-05T15:43:25.710Z,102234.06
2022-12-05T15:46:07.641Z,102231.25
2022-12-05T15:48:34.556Z,102240.16
2022-12-05T15:51:03.027Z,102232.06
2022-12-05T15:53:44.535Z,102229.72
2022-12-05T15:56:24.032Z,102228.50
2022-12-05T15:59:05.849Z,102222.66
2022-12-05T16:01:39.560Z,102236.56
2022-12-05T16:04:27.755Z,102225.09
2022-12-05T16:07:01.219Z,102226.91
2022-12-05T16:09:32.254Z,102229.34
2022-12-05T16:12:17.068Z,102224.25
2022-12-05T16:14:59.651Z,102219.22
2022-12-05T16:17:39.071Z,102216.72
2022-12-05T16:20:22.385Z,102210.19
2022-12-05T16:22:51.464Z,102215.50
2022-12-05T16:25:26.443Z,102213.19
2022-12-05T16:28:08.332Z,102203.88
2022-12-05T16:30:37.346Z,102205.81
2022-12-05T16:33:14.498Z,102209.66
2022-12-05T16:35:46.033Z,102195.47
2022-12-05T16:38:18.402Z,102197.97
2022-12-05T16:40:45.120Z,102200.06
2022-12-05T16:43:43.215Z,102199.25
2022-12-05T16:46:15.695Z,102200.13
2022-12-05T16:48:50.047Z,102201.97
2022-12-05T16:51:26.119Z,102192.53
2022-12-05T16:53:54.939Z,102198.81
2022-12-05T16:56:31.522Z,102198.88
2022-12-05T16:59:02.857Z,102200.53
2022-12-05T17:01:33.181Z,102194.00
2022-12-05T17:04:02.482Z,102193.38
2022-12-05T17:06:30.330Z,102191.78
2022-12-05T17:08:57.144Z,102197.34
2022-12-05T17:11:27.369Z,102196.50
2022-12-05T17:13:56.115Z,102194.97
2022-12-05T17:16:23.366Z,102188.88
2022-12-05T17:18:50.280Z,102185.38
2022-12-05T17:21:20.094Z,102181.00
2022-12-05T17:23:48.538Z,102182.28
2022-12-05T17:26:17.731Z,102189.28
2022-12-05T17:28:44.908Z,102188.63
2022-12-05T17:31:17.648Z,102190.81
2022-12-05T17:33:46.070Z,102194.50
2022-12-05T17:36:13.559Z,102187.56
2022-12-05T17:38:40.725Z,102190.22
2022-12-05T17:41:08.084Z,102189.81
2022-12-05T17:43:34.884Z,102178.50
2022-12-05T17:46:02.724Z,102178.66
2022-12-05T17:48:29.585Z,102180.53
2022-12-05T17:50:59.188Z,102180.63
2022-12-05T17:53:26.036Z,102178.75
2022-12-05T17:55:53.079Z,102172.94
2022-12-05T17:58:20.190Z,102174.84
2022-12-05T18:00:47.311Z,102176.56
2022-12-05T18:03:16.564Z,102174.72
2022-12-05T18:05:43.942Z,102172.97
2022-12-05T18:08:11.789Z,102169.28
2022-12-05T18:10:42.768Z,102170.88
2022-12-05T18:13:10.038Z,102175.22
2022-12-05T18:15:42.513Z,102169.03
2022-12-05T18:18:15.849Z,102163.31
2022-12-05T18:20:42.877Z,102158.63
2022-12-05T18:23:09.606Z,102152.50
2022-12-05T18:25:38.111Z,102153.41
2022-12-05T18:28:05.229Z,102154.47
2022-12-05T18:30:32.046Z,102143.94
2022-12-05T18:32:58.944Z,102149.22
2022-12-05T18:35:40.743Z,102150.16
2022-12-05T18:38:09.990Z,102151.81
2022-12-05T18:40:36.885Z,102145.31
2022-12-05T18:43:03.675Z,102156.16
2022-12-05T18:45:30.868Z,102153.66
2022-12-05T18:48:09.835Z,102152.06
2022-12-05T18:50:43.011Z,102151.34
2022-12-05T18:53:09.749Z,102159.34
2022-12-05T18:56:13.369Z,102154.13
2022-12-05T18:58:24.414Z,102146.25
2022-12-05T19:00:51.176Z,102144.53
2022-12-05T19:03:17.995Z,102153.44
2022-12-05T19:05:44.674Z,102149.16
2022-12-05T19:08:11.432Z,102155.50
2022-12-05T19:10:38.148Z,102147.44
2022-12-05T19:13:04.944Z,102151.78
2022-12-05T19:15:31.749Z,102153.59
2022-12-05T19:17:58.524Z,102151.84
2022-12-05T19:20:25.317Z,102155.50
2022-12-05T19:22:55.235Z,102159.78
2022-12-05T19:25:25.949Z,102149.94
2022-12-05T19:27:52.765Z,102153.53
2022-12-05T19:30:19.579Z,102145.72
2022-12-05T19:32:46.376Z,102143.25
2022-12-05T19:35:13.380Z,102150.34
2022-12-05T19:37:40.302Z,102148.69
2022-12-05T19:40:07.665Z,102143.47
2022-12-05T19:42:34.827Z,102151.47
2022-12-05T19:45:07.825Z,102145.50
2022-12-05T19:47:37.381Z,102143.91
2022-12-05T19:50:04.609Z,102148.47
2022-12-05T19:52:31.590Z,102144.91
2022-12-05T19:54:58.769Z,102145.00
2022-12-05T19:57:30.947Z,102135.47
2022-12-05T19:59:58.409Z,102134.78
2022-12-05T20:02:25.563Z,102146.91
2022-12-05T20:04:52.723Z,102137.22
2022-12-05T20:07:19.566Z,102144.09
2022-12-05T20:09:46.424Z,102146.41
2022-12-05T20:12:13.118Z,102143.56
2022-12-05T20:14:39.908Z,102147.56
2022-12-05T20:17:06.835Z,102150.09
2022-12-05T20:19:33.723Z,102143.84
2022-12-05T20:22:00.496Z,102144.66
2022-12-05T20:24:27.276Z,102130.63
2022-12-05T20:26:54.057Z,102136.84
2022-12-05T20:29:20.766Z,102127.84
2022-12-05T20:31:49.981Z,102134.72
2022-12-05T20:34:16.660Z,102132.22
2022-12-05T20:36:43.756Z,102117.91
2022-12-05T20:39:16.633Z,102124.84
2022-12-05T20:41:44.328Z,102129.81
2022-12-05T20:44:13.991Z,102132.22
2022-12-05T20:46:41.670Z,102130.47
2022-12-05T20:49:09.292Z,102129.56
2022-12-05T20:51:36.287Z,102126.75
2022-12-05T20:54:05.342Z,102120.81
2022-12-05T20:56:33.528Z,102117.22
2022-12-05T20:59:03.180Z,102119.22
2022-12-05T21:01:31.800Z,102118.75
2022-12-05T21:03:59.834Z,102113.03
2022-12-05T21:06:35.434Z,102117.72
2022-12-05T21:09:04.872Z,102119.94
2022-12-05T21:11:31.757Z,102111.81
2022-12-05T21:14:05.069Z,102118.25
2022-12-05T21:16:32.207Z,102100.75
2022-12-05T21:18:59.959Z,102105.13
2022-12-05T21:21:29.086Z,102102.03
2022-12-05T21:23:58.341Z,102104.78
2022-12-05T21:26:28.179Z,102104.13
2022-12-05T21:28:55.798Z,102106.88
2022-12-05T21:31:25.832Z,102102.78
2022-12-05T21:33:57.883Z,102093.13
2022-12-05T21:36:25.711Z,102103.75
2022-12-05T21:38:56.233Z,102098.72
2022-12-05T21:41:27.010Z,102091.63
2022-12-05T21:43:55.828Z,102099.38
2022-12-05T21:46:26.622Z,102097.69
2022-12-05T21:48:54.571Z,102098.72
2022-12-05T21:51:22.610Z,102089.88
2022-12-05T21:53:49.773Z,102087.41
2022-12-05T21:56:19.327Z,102090.03
2022-12-05T21:58:47.421Z,102082.91
2022-12-05T22:01:22.858Z,102083.84
2022-12-05T22:03:55.886Z,102079.47
2022-12-05T22:06:22.883Z,102089.25
2022-12-05T22:08:49.652Z,102087.28
2022-12-05T22:11:19.357Z,102083.00
2022-12-05T22:13:47.507Z,102082.00
2022-12-05T22:16:14.883Z,102083.03
2022-12-05T22:18:41.808Z,102069.88
2022-12-05T22:21:13.258Z,102068.09
2022-12-05T22:23:40.285Z,102073.38
2022-12-05T22:26:11.390Z,102062.69
2022-12-05T22:28:38.604Z,102058.00
2022-12-05T22:31:07.974Z,102068.31
2022-12-05T22:33:36.794Z,102062.78
2022-12-05T22:36:06.585Z,102060.78
2022-12-05T22:38:36.355Z,102061.59
2022-12-05T22:41:06.228Z,102058.53
2022-12-05T22:43:37.726Z,102060.06
2022-12-05T22:46:09.843Z,102057.41
2022-12-05T22:48:36.974Z,102047.41
2022-12-05T22:51:05.693Z,102056.88
2022-12-05T22:53:32.616Z,102053.19
2022-12-05T22:56:04.520Z,102047.69
2022-12-05T22:58:31.416Z,102042.16
2022-12-05T23:00:58.133Z,102041.44
2022-12-05T23:03:25.029Z,102040.66
2022-12-05T23:05:51.847Z,102033.66
2022-12-05T23:08:18.704Z,102037.19
2022-12-05T23:10:45.647Z,102031.72
2022-12-05T23:13:13.651Z,102020.47
2022-12-05T23:15:41.515Z,102022.84
2022-12-05T23:18:08.707Z,102017.50
2022-12-05T23:20:35.513Z,102021.03
2022-12-05T23:23:02.734Z,102003.00
2022-12-05T23:25:29.474Z,102000.50
2022-12-05T23:27:56.225Z,101994.88
2022-12-05T23:30:23.024Z,101998.44
2022-12-05T23:32:49.841Z,101995.00
2022-12-05T23:35:16.777Z,102011.03
2022-12-05T23:37:43.515Z,102003.31
2022-12-05T23:40:10.592Z,101999.50
2022-12-05T23:42:37.310Z,101997.59
2022-12-05T23:45:04.384Z,102002.56
2022-12-05T23:47:31.159Z,101997.06
2022-12-05T23:49:58.149Z,101997.69
2022-12-05T23:52:25.278Z,101996.44
2022-12-05T23:54:51.993Z,101994.72
2022-12-05T23:57:20.975Z,101997.22
2022-12-05T23:59:48.196Z,102000.66
